createdAt,value
2019-05-23T00:02:53.855Z,8.83
2019-05-23T00:06:38.966Z,5.93
2019-05-23T00:10:24.358Z,12.63
2019-05-23T00:13:54.722Z,6.40
2019-05-23T00:17:20.903Z,5.90
2019-05-23T00:20:47.340Z,5.50
2019-05-23T00:24:13.934Z,8.50
2019-05-23T00:27:42.816Z,9.03
2019-05-23T00:31:41.281Z,6.60
2019-05-23T00:35:09.986Z,4.83
2019-05-23T00:38:35.691Z,5.27
2019-05-23T00:42:01.357Z,9.07
2019-05-23T00:45:27.121Z,6.23
2019-05-23T00:48:54.549Z,6.10
2019-05-23T00:52:20.290Z,8.73
2019-05-23T00:55:45.875Z,10.07
2019-05-23T00:59:25.920Z,5.50
2019-05-23T01:02:43.030Z,5.93
2019-05-23T01:06:09.197Z,9.03
2019-05-23T01:09:35.381Z,6.97
2019-05-23T01:13:02.702Z,6.43
2019-05-23T01:16:32.141Z,6.90
2019-05-23T01:19:58.944Z,9.47
2019-05-23T01:23:26.359Z,5.57
2019-05-23T01:26:52.979Z,5.47
2019-05-23T01:30:21.157Z,5.93
2019-05-23T01:33:48.280Z,6.10
2019-05-23T01:37:14.170Z,7.00
2019-05-23T01:40:41.322Z,8.67
2019-05-23T01:44:09.749Z,7.60
2019-05-23T01:47:35.534Z,6.20
2019-05-23T01:51:01.762Z,8.00
2019-05-23T01:54:27.443Z,7.50
2019-05-23T01:57:53.955Z,6.77
2019-05-23T02:01:22.823Z,7.17
2019-05-23T02:04:48.583Z,11.53
2019-05-23T02:08:16.635Z,8.00
2019-05-23T02:11:42.931Z,5.87
2019-05-23T02:15:10.063Z,7.23
2019-05-23T02:18:36.345Z,6.60
2019-05-23T02:22:02.523Z,7.03
2019-05-23T02:25:29.151Z,8.27
2019-05-23T02:28:55.270Z,10.40
2019-05-23T02:32:21.910Z,6.77
2019-05-23T02:35:47.584Z,9.47
2019-05-23T02:39:14.867Z,6.90
2019-05-23T02:42:45.040Z,8.70
2019-05-23T02:46:16.777Z,7.27
2019-05-23T02:49:43.101Z,6.40
2019-05-23T02:53:13.275Z,12.53
2019-05-23T02:56:40.064Z,9.93
2019-05-23T03:00:52.379Z,5.57
2019-05-23T03:04:07.120Z,8.73
2019-05-23T03:07:35.378Z,9.93
2019-05-23T03:11:07.188Z,8.87
2019-05-23T03:14:36.260Z,7.27
2019-05-23T03:18:05.567Z,4.97
2019-05-23T03:21:33.983Z,9.07
2019-05-23T03:25:08.555Z,9.13
2019-05-23T03:28:42.731Z,6.10
2019-05-23T03:32:15.906Z,11.60
2019-05-23T03:35:43.444Z,10.13
2019-05-23T03:39:11.764Z,8.70
2019-05-23T03:42:37.524Z,6.60
2019-05-23T03:46:07.850Z,6.90
2019-05-23T03:49:34.457Z,7.93
2019-05-23T03:53:00.145Z,8.53
2019-05-23T03:56:26.741Z,6.77
2019-05-23T03:59:52.359Z,8.17
2019-05-23T04:03:19.384Z,9.47
2019-05-23T04:06:45.148Z,19.00
2019-05-23T04:10:13.227Z,7.70
2019-05-23T04:13:39.266Z,6.27
2019-05-23T04:17:06.483Z,8.43
2019-05-23T04:20:32.791Z,7.40
2019-05-23T04:23:58.706Z,6.40
2019-05-23T04:27:24.554Z,9.23
2019-05-23T04:30:50.269Z,9.17
2019-05-23T04:34:15.874Z,8.00
2019-05-23T04:37:42.316Z,10.83
2019-05-23T04:41:08.196Z,8.63
2019-05-23T04:44:33.889Z,7.20
2019-05-23T04:47:59.467Z,6.90
2019-05-23T04:51:26.289Z,11.77
2019-05-23T04:54:52.033Z,7.03
2019-05-23T04:58:18.134Z,9.37
2019-05-23T05:01:43.804Z,15.73
2019-05-23T05:05:09.748Z,8.93
2019-05-23T05:08:35.632Z,11.80
2019-05-23T05:12:02.112Z,10.20
2019-05-23T05:15:27.709Z,9.97
2019-05-23T05:18:55.308Z,13.83
2019-05-23T05:22:21.739Z,12.87
2019-05-23T05:25:47.349Z,14.67
2019-05-23T05:29:13.290Z,9.50
2019-05-23T05:32:44.564Z,10.47
2019-05-23T05:36:07.302Z,9.90
2019-05-23T05:39:33.562Z,12.57
2019-05-23T05:43:01.158Z,11.77
2019-05-23T05:46:27.231Z,10.83
2019-05-23T05:49:53.489Z,16.60
2019-05-23T05:53:19.488Z,18.77
2019-05-23T05:56:45.133Z,20.70
2019-05-23T06:00:26.245Z,27.87
2019-05-23T06:03:52.570Z,25.40
2019-05-23T06:07:31.900Z,20.83
2019-05-23T06:10:58.037Z,18.17
2019-05-23T06:14:24.132Z,13.57
2019-05-23T06:17:50.628Z,20.20
2019-05-23T06:21:19.180Z,23.30
2019-05-23T06:24:50.543Z,19.73
2019-05-23T06:28:14.147Z,17.37
2019-05-23T06:31:41.532Z,19.20
2019-05-23T06:35:08.466Z,17.23
2019-05-23T06:38:34.304Z,17.10
2019-05-23T06:42:01.219Z,16.70
2019-05-23T06:45:27.528Z,16.80
2019-05-23T06:48:53.119Z,18.77
2019-05-23T06:52:18.990Z,16.20
2019-05-23T06:55:44.662Z,15.87
2019-05-23T06:59:11.772Z,17.77
2019-05-23T07:02:37.944Z,18.17
2019-05-23T07:06:04.389Z,21.40
2019-05-23T07:09:30.073Z,15.77
2019-05-23T07:12:55.665Z,17.30
2019-05-23T07:16:21.715Z,18.80
2019-05-23T07:19:47.570Z,23.70
2019-05-23T07:23:13.839Z,18.47
2019-05-23T07:26:39.708Z,17.00
2019-05-23T07:30:12.633Z,15.00
2019-05-23T07:33:38.471Z,20.97
2019-05-23T07:37:05.051Z,21.27
2019-05-23T07:40:31.296Z,22.33
2019-05-23T07:43:57.082Z,20.27
2019-05-23T07:47:22.865Z,15.13
2019-05-23T07:50:48.880Z,14.73
2019-05-23T07:54:16.199Z,16.50
2019-05-23T07:57:42.365Z,15.70
2019-05-23T08:01:09.626Z,17.10
2019-05-23T08:04:35.389Z,15.30
2019-05-23T08:08:01.319Z,18.70
2019-05-23T08:11:27.337Z,15.80
2019-05-23T08:14:52.984Z,17.77
2019-05-23T08:18:18.714Z,20.97
2019-05-23T08:21:44.483Z,12.87
2019-05-23T08:25:10.328Z,13.33
2019-05-23T08:28:36.445Z,13.50
2019-05-23T08:32:02.953Z,15.80
2019-05-23T08:35:28.641Z,14.00
2019-05-23T08:38:54.776Z,13.87
2019-05-23T08:42:22.438Z,12.67
2019-05-23T08:45:48.258Z,13.80
2019-05-23T08:49:14.675Z,16.47
2019-05-23T08:52:40.749Z,14.67
2019-05-23T08:56:18.064Z,17.07
2019-05-23T08:59:33.773Z,15.60
2019-05-23T09:03:00.472Z,21.43
2019-05-23T09:06:26.705Z,11.80
2019-05-23T09:09:52.336Z,11.93
2019-05-23T09:13:18.304Z,10.80
2019-05-23T09:16:43.956Z,13.93
2019-05-23T09:20:10.506Z,11.80
2019-05-23T09:23:37.691Z,11.73
2019-05-23T09:27:04.026Z,11.47
2019-05-23T09:30:31.558Z,7.43
2019-05-23T09:33:57.324Z,9.13
2019-05-23T09:37:23.019Z,10.47
2019-05-23T09:40:48.619Z,10.10
2019-05-23T09:44:14.495Z,9.87
2019-05-23T09:47:40.124Z,9.17
2019-05-23T09:51:05.799Z,10.53
2019-05-23T09:54:32.935Z,13.07
2019-05-23T09:57:58.532Z,10.40
2019-05-23T10:01:24.457Z,7.00
2019-05-23T10:04:50.321Z,8.03
2019-05-23T10:08:15.954Z,8.17
2019-05-23T10:11:41.555Z,10.67
2019-05-23T10:15:11.898Z,8.63
2019-05-23T10:18:37.839Z,8.27
2019-05-23T10:22:05.472Z,6.20
2019-05-23T10:25:31.725Z,8.37
2019-05-23T10:28:57.329Z,11.65
2019-05-23T10:32:24.025Z,10.08
2019-05-23T10:35:59.720Z,8.38
2019-05-23T10:39:19.988Z,6.00
2019-05-23T10:42:45.810Z,8.95
2019-05-23T10:46:12.180Z,8.80
2019-05-23T10:49:37.785Z,7.03
2019-05-23T10:53:03.658Z,7.95
2019-05-23T10:56:29.514Z,8.13
2019-05-23T10:59:55.104Z,8.45
2019-05-23T11:03:21.293Z,8.18
2019-05-23T11:06:47.429Z,7.35
2019-05-23T11:10:15.263Z,8.15
2019-05-23T11:13:41.379Z,8.08
2019-05-23T11:17:08.272Z,11.60
2019-05-23T11:20:36.180Z,5.47
2019-05-23T11:24:02.103Z,9.75
2019-05-23T11:27:31.166Z,6.83
2019-05-23T11:30:58.349Z,8.35
2019-05-23T11:34:24.631Z,9.05
2019-05-23T11:37:50.247Z,7.47
2019-05-23T11:41:16.351Z,11.35
2019-05-23T11:44:42.110Z,7.95
2019-05-23T11:48:08.696Z,10.45
2019-05-23T11:51:35.878Z,10.15
2019-05-23T11:55:04.074Z,7.62
2019-05-23T11:58:32.680Z,9.38
2019-05-23T12:02:00.551Z,6.05
2019-05-23T12:05:28.168Z,12.63
2019-05-23T12:08:54.107Z,8.60
2019-05-23T12:12:20.032Z,7.90
2019-05-23T12:15:49.463Z,9.30
2019-05-23T12:19:15.327Z,9.23
2019-05-23T12:22:41.808Z,13.98
2019-05-23T12:26:07.392Z,9.83
2019-05-23T12:29:33.730Z,5.92
2019-05-23T12:32:59.405Z,6.50
2019-05-23T12:36:26.464Z,7.83
2019-05-23T12:39:52.656Z,8.50
2019-05-23T12:43:18.256Z,4.97
2019-05-23T12:46:43.856Z,6.97
2019-05-23T12:50:14.789Z,6.67
2019-05-23T12:53:40.788Z,5.58
2019-05-23T12:57:07.916Z,6.15
2019-05-23T13:00:39.988Z,6.85
2019-05-23T13:04:10.081Z,10.82
2019-05-23T13:07:36.790Z,5.05
2019-05-23T13:11:02.635Z,5.10
2019-05-23T13:14:29.258Z,9.70
2019-05-23T13:17:54.849Z,5.40
2019-05-23T13:21:20.468Z,5.58
2019-05-23T13:24:52.678Z,6.30
2019-05-23T13:28:15.266Z,6.28
2019-05-23T13:31:41.176Z,5.85
2019-05-23T13:35:09.941Z,5.53
2019-05-23T13:38:36.413Z,4.95
2019-05-23T13:42:02.201Z,10.43
2019-05-23T13:45:28.267Z,7.22
2019-05-23T13:48:53.885Z,9.08
2019-05-23T13:52:19.652Z,4.45
2019-05-23T13:55:46.400Z,6.95
2019-05-23T13:59:12.207Z,8.33
2019-05-23T14:02:38.352Z,4.60
2019-05-23T14:06:04.518Z,7.90
2019-05-23T14:09:31.054Z,5.28
2019-05-23T14:12:57.088Z,5.62
2019-05-23T14:16:22.769Z,3.65
2019-05-23T14:19:48.639Z,4.80
2019-05-23T14:23:24.982Z,8.98
2019-05-23T14:26:54.963Z,7.80
2019-05-23T14:30:28.631Z,9.58
2019-05-23T14:33:55.864Z,8.40
2019-05-23T14:37:29.440Z,4.37
2019-05-23T14:40:55.312Z,4.60
2019-05-23T14:44:21.484Z,5.67
2019-05-23T14:48:04.127Z,4.53
2019-05-23T14:51:34.404Z,3.98
2019-05-23T14:55:02.052Z,6.87
2019-05-23T14:58:28.205Z,3.98
2019-05-23T15:01:56.203Z,2.87
2019-05-23T15:05:23.129Z,7.22
2019-05-23T15:08:51.517Z,6.62
2019-05-23T15:12:16.112Z,4.37
2019-05-23T15:15:41.866Z,7.67
2019-05-23T15:19:07.680Z,4.37
2019-05-23T15:22:33.328Z,8.53
2019-05-23T15:25:58.964Z,6.12
2019-05-23T15:29:28.855Z,4.03
2019-05-23T15:32:52.670Z,6.62
2019-05-23T15:36:18.706Z,7.75
2019-05-23T15:39:44.412Z,6.62
2019-05-23T15:43:10.395Z,6.10
2019-05-23T15:46:36.711Z,4.53
2019-05-23T15:50:07.153Z,4.85
2019-05-23T15:53:31.199Z,4.30
2019-05-23T15:57:08.160Z,3.83
2019-05-23T16:00:52.503Z,5.40
2019-05-23T16:04:22.956Z,4.20
2019-05-23T16:07:50.181Z,3.67
2019-05-23T16:11:17.648Z,4.17
2019-05-23T16:14:44.496Z,3.05
2019-05-23T16:18:10.157Z,3.75
2019-05-23T16:21:35.866Z,5.58
2019-05-23T16:25:01.586Z,3.30
2019-05-23T16:28:27.952Z,6.00
2019-05-23T16:31:53.855Z,4.58
2019-05-23T16:35:20.445Z,5.75
2019-05-23T16:38:46.038Z,5.17
2019-05-23T16:42:14.825Z,5.55
2019-05-23T16:45:40.499Z,6.47
2019-05-23T16:49:06.394Z,4.87
2019-05-23T16:52:33.404Z,4.40
2019-05-23T16:56:01.158Z,7.60
2019-05-23T16:59:40.430Z,7.45
2019-05-23T17:03:06.147Z,8.43
2019-05-23T17:06:48.683Z,6.47
2019-05-23T17:10:19.438Z,3.40
2019-05-23T17:13:49.732Z,5.22
2019-05-23T17:17:49.047Z,4.12
2019-05-23T17:20:59.208Z,4.83
2019-05-23T17:24:29.824Z,7.95
2019-05-23T17:28:03.744Z,8.83
2019-05-23T17:31:40.532Z,6.92
2019-05-23T17:35:08.150Z,5.45
2019-05-23T17:38:36.482Z,5.33
2019-05-23T17:42:02.679Z,7.20
2019-05-23T17:45:29.240Z,9.43
2019-05-23T17:48:55.048Z,7.40
2019-05-23T17:52:20.705Z,6.92
2019-05-23T17:55:46.631Z,6.53
2019-05-23T17:59:12.767Z,5.00
2019-05-23T18:02:38.538Z,3.95
2019-05-23T18:06:04.740Z,11.80
2019-05-23T18:09:31.185Z,7.37
2019-05-23T18:12:58.514Z,11.83
2019-05-23T18:16:25.102Z,8.18
2019-05-23T18:19:51.653Z,4.65
2019-05-23T18:23:17.866Z,6.50
2019-05-23T18:26:43.542Z,12.93
2019-05-23T18:30:28.753Z,7.75
2019-05-23T18:33:54.904Z,5.35
2019-05-23T18:37:21.398Z,7.15
2019-05-23T18:41:01.739Z,19.12
2019-05-23T18:44:14.680Z,9.98
2019-05-23T18:47:44.092Z,6.03
2019-05-23T18:51:10.619Z,6.37
2019-05-23T18:54:36.730Z,7.45
2019-05-23T18:58:02.430Z,5.00
2019-05-23T19:01:28.126Z,4.22
2019-05-23T19:04:55.260Z,5.28
2019-05-23T19:08:21.035Z,6.33
2019-05-23T19:11:46.834Z,5.58
2019-05-23T19:15:13.601Z,7.22
2019-05-23T19:18:40.050Z,6.03
2019-05-23T19:22:06.076Z,5.20
2019-05-23T19:25:33.425Z,7.97
2019-05-23T19:28:59.160Z,5.10
2019-05-23T19:32:25.234Z,10.15
2019-05-23T19:35:51.122Z,5.85
2019-05-23T19:39:17.115Z,6.45
2019-05-23T19:42:43.143Z,4.60
2019-05-23T19:46:09.135Z,6.72
2019-05-23T19:49:35.074Z,6.60
2019-05-23T19:53:01.041Z,8.10
2019-05-23T19:56:26.804Z,5.95
2019-05-23T19:59:52.693Z,4.08
2019-05-23T20:03:19.737Z,6.87
2019-05-23T20:06:45.788Z,4.95
2019-05-23T20:10:12.787Z,8.80
2019-05-23T20:13:38.403Z,8.83
2019-05-23T20:17:03.999Z,6.00
2019-05-23T20:20:31.611Z,6.05
2019-05-23T20:23:57.281Z,7.87
2019-05-23T20:27:23.842Z,10.60
2019-05-23T20:30:54.592Z,7.37
2019-05-23T20:34:21.709Z,6.77
2019-05-23T20:37:50.612Z,7.63
2019-05-23T20:41:16.553Z,12.20
2019-05-23T20:44:42.139Z,7.20
2019-05-23T20:48:09.681Z,6.07
2019-05-23T20:51:35.652Z,8.80
2019-05-23T20:55:01.895Z,9.57
2019-05-23T20:58:29.060Z,14.03
2019-05-23T21:01:55.671Z,8.83
2019-05-23T21:05:21.552Z,6.53
2019-05-23T21:08:47.158Z,11.00
2019-05-23T21:12:28.896Z,7.17
2019-05-23T21:15:41.034Z,8.87
2019-05-23T21:19:06.964Z,5.43
2019-05-23T21:22:33.766Z,7.13
2019-05-23T21:26:01.006Z,10.10
2019-05-23T21:29:26.737Z,9.00
2019-05-23T21:32:52.558Z,9.30
2019-05-23T21:36:18.427Z,8.90
2019-05-23T21:39:44.820Z,6.37
2019-05-23T21:43:10.560Z,8.53
2019-05-23T21:46:36.787Z,6.77
2019-05-23T21:50:02.429Z,8.87
2019-05-23T21:53:28.229Z,7.80
2019-05-23T21:56:55.364Z,7.30
2019-05-23T22:00:46.279Z,6.57
2019-05-23T22:04:13.719Z,7.47
2019-05-23T22:07:40.283Z,8.23
2019-05-23T22:11:07.492Z,8.03
2019-05-23T22:14:33.074Z,5.17
2019-05-23T22:17:58.745Z,8.80
2019-05-23T22:21:24.578Z,7.07
2019-05-23T22:24:50.239Z,5.97
2019-05-23T22:28:16.114Z,7.97
2019-05-23T22:31:41.732Z,9.03
2019-05-23T22:35:09.570Z,6.47
2019-05-23T22:38:36.498Z,6.03
2019-05-23T22:42:02.463Z,10.00
2019-05-23T22:45:28.840Z,9.43
2019-05-23T22:48:54.498Z,9.80
2019-05-23T22:52:21.128Z,7.17
2019-05-23T22:55:46.723Z,6.20
2019-05-23T22:59:12.331Z,7.13
2019-05-23T23:02:37.934Z,12.70
2019-05-23T23:06:04.076Z,9.20
2019-05-23T23:09:29.990Z,6.37
2019-05-23T23:12:55.597Z,6.63
2019-05-23T23:16:21.431Z,14.90
2019-05-23T23:19:47.034Z,7.37
2019-05-23T23:23:12.792Z,8.70
2019-05-23T23:26:38.393Z,7.37
2019-05-23T23:30:06.190Z,6.93
2019-05-23T23:33:32.171Z,11.13
2019-05-23T23:36:58.404Z,8.27
2019-05-23T23:40:24.360Z,7.70
2019-05-23T23:43:59.170Z,7.97
2019-05-23T23:47:35.565Z,7.03
2019-05-23T23:51:19.260Z,6.90
2019-05-23T23:55:03.145Z,14.87
2019-05-23T23:58:28.395Z,8.63
